createdAt,value
2018-08-10T00:01:46.357Z,101042.28
2018-08-10T00:04:15.081Z,101028.91
2018-08-10T00:06:43.630Z,101030.22
2018-08-10T00:09:12.397Z,101023.14
2018-08-10T00:11:41.567Z,101021.83
2018-08-10T00:14:10.050Z,101015.66
2018-08-10T00:16:38.513Z,101011.71
2018-08-10T00:19:07.237Z,101013.92
2018-08-10T00:21:35.753Z,101018.88
2018-08-10T00:24:04.245Z,101019.41
2018-08-10T00:26:33.030Z,101019.90
2018-08-10T00:29:02.533Z,101022.63
2018-08-10T00:31:31.380Z,101016.88
2018-08-10T00:34:00.217Z,101018.22
2018-08-10T00:36:28.705Z,101008.44
2018-08-10T00:38:57.173Z,101003.60
2018-08-10T00:41:26.693Z,101006.70
2018-08-10T00:43:55.241Z,101009.83
2018-08-10T00:46:23.694Z,101004.54
2018-08-10T00:48:52.329Z,101010.25
2018-08-10T00:51:20.798Z,101008.09
2018-08-10T00:53:49.269Z,101005.45
2018-08-10T00:56:17.961Z,100994.81
2018-08-10T00:58:46.478Z,100992.59
2018-08-10T01:01:14.958Z,100986.43
2018-08-10T01:03:43.486Z,100989.13
2018-08-10T01:06:12.242Z,100985.15
2018-08-10T01:08:40.678Z,100987.88
2018-08-10T01:11:09.585Z,100983.44
2018-08-10T01:13:38.301Z,100979.45
2018-08-10T01:16:06.753Z,100978.15
2018-08-10T01:18:35.640Z,100978.63
2018-08-10T01:21:04.386Z,100980.45
2018-08-10T01:23:32.897Z,100973.74
2018-08-10T01:26:01.749Z,100965.73
2018-08-10T01:28:30.654Z,100972.01
2018-08-10T01:30:59.155Z,100975.59
2018-08-10T01:33:27.651Z,100980.50
2018-08-10T01:35:56.117Z,100981.03
2018-08-10T01:38:24.565Z,100985.06
2018-08-10T01:40:53.501Z,100980.17
2018-08-10T01:43:22.125Z,100971.31
2018-08-10T01:45:50.575Z,100970.86
2018-08-10T01:48:19.249Z,100970.43
2018-08-10T01:50:47.723Z,100965.11
2018-08-10T01:53:16.201Z,100962.86
2018-08-10T01:55:44.749Z,100956.19
2018-08-10T01:58:13.341Z,100955.74
2018-08-10T02:00:41.904Z,100955.31
2018-08-10T02:03:10.533Z,100957.09
2018-08-10T02:05:39.017Z,100953.12
2018-08-10T02:08:07.632Z,100954.88
2018-08-10T02:10:43.037Z,100945.53
2018-08-10T02:13:11.493Z,100946.87
2018-08-10T02:15:40.277Z,100934.91
2018-08-10T02:18:09.230Z,100932.28
2018-08-10T02:20:37.694Z,100933.20
2018-08-10T02:23:06.211Z,100934.12
2018-08-10T02:25:35.071Z,100931.91
2018-08-10T02:28:03.621Z,100924.81
2018-08-10T02:31:06.339Z,100914.98
2018-08-10T02:33:34.891Z,100897.63
2018-08-10T02:36:03.469Z,100888.77
2018-08-10T02:38:32.082Z,100883.45
2018-08-10T02:41:00.541Z,100883.06
2018-08-10T02:43:29.059Z,100875.53
2018-08-10T02:45:57.725Z,100866.64
2018-08-10T02:48:26.165Z,100867.55
2018-08-10T02:50:55.241Z,100863.14
2018-08-10T02:53:25.010Z,100863.14
2018-08-10T02:55:53.497Z,100852.05
2018-08-10T02:58:21.946Z,100858.72
2018-08-10T03:00:50.593Z,100862.27
2018-08-10T03:03:19.069Z,100861.38
2018-08-10T03:05:47.538Z,100863.59
2018-08-10T03:08:16.510Z,100867.58
2018-08-10T03:10:44.966Z,100871.16
2018-08-10T03:13:13.472Z,100866.70
2018-08-10T03:15:42.206Z,100850.23
2018-08-10T03:18:10.700Z,100856.84
2018-08-10T03:20:39.151Z,100848.36
2018-08-10T03:23:07.750Z,100840.31
2018-08-10T03:25:36.213Z,100834.05
2018-08-10T03:28:04.697Z,100824.27
2018-08-10T03:30:33.473Z,100813.11
2018-08-10T03:33:02.013Z,100804.56
2018-08-10T03:35:30.509Z,100807.63
2018-08-10T03:37:59.330Z,100801.77
2018-08-10T03:40:27.811Z,100790.16
2018-08-10T03:42:56.303Z,100783.36
2018-08-10T03:45:25.381Z,100782.38
2018-08-10T03:47:53.886Z,100778.67
2018-08-10T03:50:22.345Z,100778.16
2018-08-10T03:52:51.047Z,100780.24
2018-08-10T03:55:19.492Z,100778.32
2018-08-10T03:57:47.949Z,100766.13
2018-08-10T04:00:16.866Z,100764.55
2018-08-10T04:02:45.374Z,100762.13
2018-08-10T04:05:13.926Z,100753.41
2018-08-10T04:07:42.529Z,100743.80
2018-08-10T04:10:11.245Z,100738.30
2018-08-10T04:12:39.879Z,100737.61
2018-08-10T04:15:11.734Z,100734.74
2018-08-10T04:17:40.320Z,100738.56
2018-08-10T04:20:09.088Z,100739.33
2018-08-10T04:22:37.708Z,100741.46
2018-08-10T04:25:06.539Z,100743.56
2018-08-10T04:27:35.027Z,100736.75
2018-08-10T04:30:03.749Z,100721.45
2018-08-10T04:32:32.809Z,100720.91
2018-08-10T04:35:01.300Z,100707.91
2018-08-10T04:37:29.934Z,100702.02
2018-08-10T04:39:58.562Z,100689.05
2018-08-10T04:42:27.045Z,100683.23
2018-08-10T04:44:55.901Z,100681.39
2018-08-10T04:47:24.406Z,100678.17
2018-08-10T04:49:52.877Z,100678.54
2018-08-10T04:52:21.640Z,100672.72
2018-08-10T04:54:50.316Z,100665.66
2018-08-10T04:57:18.773Z,100663.31
2018-08-10T04:59:47.251Z,100651.18
2018-08-10T05:02:15.723Z,100658.66
2018-08-10T05:04:44.169Z,100648.74
2018-08-10T05:07:12.660Z,100639.73
2018-08-10T05:09:41.117Z,100649.85
2018-08-10T05:12:09.577Z,100658.67
2018-08-10T05:14:38.261Z,100642.93
2018-08-10T05:17:06.793Z,100628.06
2018-08-10T05:19:35.565Z,100598.56
2018-08-10T05:22:04.649Z,100629.63
2018-08-10T05:24:33.099Z,100623.72
2018-08-10T05:27:01.865Z,100617.75
2018-08-10T05:29:30.643Z,100631.94
2018-08-10T05:31:59.074Z,100659.14
2018-08-10T05:34:27.729Z,100672.07
2018-08-10T05:36:56.525Z,100659.64
2018-08-10T05:39:24.970Z,100658.31
2018-08-10T05:41:53.469Z,100657.84
2018-08-10T05:44:22.181Z,100662.74
2018-08-10T05:46:50.621Z,100658.31
2018-08-10T05:49:19.149Z,100645.38
2018-08-10T05:51:48.043Z,100651.15
2018-08-10T05:54:16.509Z,100640.44
2018-08-10T05:56:45.177Z,100643.58
2018-08-10T05:59:14.532Z,100652.53
2018-08-10T06:01:43.249Z,100660.16
2018-08-10T06:04:11.993Z,100649.77
2018-08-10T06:06:40.666Z,100647.83
2018-08-10T06:09:13.057Z,100645.75
2018-08-10T06:11:42.307Z,100640.98
2018-08-10T06:14:10.869Z,100633.83
2018-08-10T06:16:39.345Z,100634.67
2018-08-10T06:19:08.410Z,100620.27
2018-08-10T06:21:37.386Z,100614.72
2018-08-10T06:24:06.111Z,100609.55
2018-08-10T06:26:35.138Z,100609.30
2018-08-10T06:29:03.657Z,100589.44
2018-08-10T06:31:32.199Z,100583.92
2018-08-10T06:34:01.296Z,100581.77
2018-08-10T06:36:29.647Z,100579.37
2018-08-10T06:38:58.106Z,100576.58
2018-08-10T06:41:27.185Z,100567.48
2018-08-10T06:43:55.673Z,100581.06
2018-08-10T06:46:24.119Z,100584.34
2018-08-10T06:48:53.006Z,100591.13
2018-08-10T06:51:21.577Z,100599.25
2018-08-10T06:53:49.969Z,100592.19
2018-08-10T06:56:18.649Z,100599.30
2018-08-10T06:58:47.120Z,100593.11
2018-08-10T07:01:15.546Z,100586.01
2018-08-10T07:03:44.733Z,100579.77
2018-08-10T07:06:13.245Z,100563.72
2018-08-10T07:08:41.705Z,100551.20
2018-08-10T07:11:10.806Z,100567.73
2018-08-10T07:13:39.284Z,100569.58
2018-08-10T07:16:07.798Z,100574.93
2018-08-10T07:18:36.513Z,100576.31
2018-08-10T07:21:04.986Z,100577.52
2018-08-10T07:23:33.879Z,100584.11
2018-08-10T07:26:02.565Z,100585.31
2018-08-10T07:28:30.996Z,100563.75
2018-08-10T07:30:59.536Z,100564.86
2018-08-10T07:33:28.415Z,100561.98
2018-08-10T07:35:56.864Z,100563.55
2018-08-10T07:38:25.386Z,100546.91
2018-08-10T07:40:54.269Z,100561.66
2018-08-10T07:43:22.822Z,100549.30
2018-08-10T07:45:51.289Z,100554.70
2018-08-10T07:48:20.138Z,100554.75
2018-08-10T07:50:48.569Z,100551.07
2018-08-10T07:53:17.014Z,100543.06
2018-08-10T07:55:46.177Z,100549.11
2018-08-10T07:58:14.689Z,100529.70
2018-08-10T08:00:43.408Z,100543.30
2018-08-10T08:03:12.385Z,100537.88
2018-08-10T08:05:41.534Z,100532.75
2018-08-10T08:08:10.006Z,100538.66
2018-08-10T08:10:38.910Z,100532.82
2018-08-10T08:13:07.776Z,100523.94
2018-08-10T08:15:36.219Z,100522.53
2018-08-10T08:18:05.380Z,100516.59
2018-08-10T08:20:33.773Z,100515.92
2018-08-10T08:23:04.574Z,100508.17
2018-08-10T08:25:33.730Z,100508.34
2018-08-10T08:28:02.260Z,100503.69
2018-08-10T08:30:30.938Z,100495.34
2018-08-10T08:32:59.599Z,100490.45
2018-08-10T08:35:28.077Z,100494.92
2018-08-10T08:38:06.833Z,100488.75
2018-08-10T08:40:35.333Z,100492.36
2018-08-10T08:43:03.871Z,100494.67
2018-08-10T08:45:42.566Z,100492.42
2018-08-10T08:48:11.453Z,100494.02
2018-08-10T08:50:41.802Z,100481.82
2018-08-10T08:53:10.545Z,100484.48
2018-08-10T08:55:43.933Z,100499.31
2018-08-10T08:58:12.845Z,100491.20
2018-08-10T09:00:41.737Z,100495.94
2018-08-10T09:05:17.666Z,100489.27
2018-08-10T09:07:46.231Z,100488.07
2018-08-10T09:10:16.390Z,100494.06
2018-08-10T09:12:45.352Z,100494.66
2018-08-10T09:15:15.314Z,100493.61
2018-08-10T09:17:43.923Z,100501.52
2018-08-10T09:20:12.650Z,100504.22
2018-08-10T09:22:41.118Z,100517.31
2018-08-10T09:25:14.193Z,100503.58
2018-08-10T09:27:43.137Z,100519.72
2018-08-10T09:30:13.537Z,100521.16
2018-08-10T09:32:42.415Z,100520.07
2018-08-10T09:35:11.798Z,100522.42
2018-08-10T09:37:40.318Z,100529.15
2018-08-10T09:40:11.805Z,100543.44
2018-08-10T09:42:41.348Z,100538.64
2018-08-10T09:45:17.143Z,100545.66
2018-08-10T09:47:46.781Z,100538.60
2018-08-10T09:50:16.124Z,100533.78
2018-08-10T09:52:52.306Z,100549.42
2018-08-10T09:55:22.161Z,100530.81
2018-08-10T09:57:52.242Z,100514.31
2018-08-10T10:00:25.996Z,100523.16
2018-08-10T10:03:00.526Z,100517.05
2018-08-10T10:05:29.109Z,100530.25
2018-08-10T10:07:57.557Z,100531.01
2018-08-10T10:10:26.177Z,100527.70
2018-08-10T10:12:55.110Z,100515.35
2018-08-10T10:15:23.836Z,100519.42
2018-08-10T10:17:52.506Z,100511.19
2018-08-10T10:20:21.514Z,100517.28
2018-08-10T10:22:50.374Z,100513.36
2018-08-10T10:25:19.313Z,100510.12
2018-08-10T10:27:48.252Z,100523.77
2018-08-10T10:30:16.758Z,100510.91
2018-08-10T10:32:45.507Z,100503.11
2018-08-10T10:35:14.069Z,100368.19
2018-08-10T10:37:42.733Z,100509.97
2018-08-10T10:40:12.061Z,100496.46
2018-08-10T10:42:40.885Z,100486.75
2018-08-10T10:45:11.542Z,100488.59
2018-08-10T10:47:40.386Z,100504.84
2018-08-10T10:50:09.785Z,100484.08
2018-08-10T10:52:38.850Z,100501.83
2018-08-10T10:55:08.153Z,100504.25
2018-08-10T10:57:36.730Z,100503.89
2018-08-10T11:00:07.807Z,100504.37
2018-08-10T11:02:36.632Z,100506.81
2018-08-10T11:05:06.152Z,100499.39
2018-08-10T11:07:34.627Z,100498.75
2018-08-10T11:10:03.080Z,100508.52
2018-08-10T11:12:31.670Z,100504.05
2018-08-10T11:15:00.202Z,100508.61
2018-08-10T11:17:28.711Z,100506.94
2018-08-10T11:19:57.662Z,100523.41
2018-08-10T11:22:26.130Z,100507.91
2018-08-10T11:24:54.562Z,100499.87
2018-08-10T11:27:23.485Z,100507.84
2018-08-10T11:29:52.341Z,100505.71
2018-08-10T11:32:20.813Z,100509.38
2018-08-10T11:34:49.429Z,100513.05
2018-08-10T11:37:17.948Z,100521.56
2018-08-10T11:39:46.398Z,100521.86
2018-08-10T11:42:14.917Z,100514.98
2018-08-10T11:44:43.405Z,100533.79
2018-08-10T11:47:11.847Z,100522.39
2018-08-10T11:49:40.279Z,100514.61
2018-08-10T11:52:08.843Z,100529.45
2018-08-10T11:54:37.299Z,100490.36
2018-08-10T11:57:06.377Z,100517.61
2018-08-10T11:59:34.873Z,100520.92
2018-08-10T12:02:03.447Z,100516.08
2018-08-10T12:04:31.889Z,100531.75
2018-08-10T12:07:00.661Z,100533.20
2018-08-10T12:09:29.097Z,100537.08
2018-08-10T12:11:57.534Z,100526.03
2018-08-10T12:14:26.197Z,100524.80
2018-08-10T12:16:54.667Z,100530.51
2018-08-10T12:19:23.323Z,100528.31
2018-08-10T12:21:51.821Z,100542.83
2018-08-10T12:24:20.333Z,100539.14
2018-08-10T12:26:49.073Z,100529.80
2018-08-10T12:29:17.608Z,100535.91
2018-08-10T12:31:46.307Z,100540.34
2018-08-10T12:34:15.538Z,100530.73
2018-08-10T12:36:44.373Z,100538.73
2018-08-10T12:39:14.305Z,100532.88
2018-08-10T12:41:43.128Z,100535.48
2018-08-10T12:44:12.073Z,100532.58
2018-08-10T12:46:40.595Z,100532.75
2018-08-10T12:49:09.574Z,100537.65
2018-08-10T12:51:38.289Z,100539.20
2018-08-10T12:54:06.930Z,100543.06
2018-08-10T12:56:35.469Z,100528.16
2018-08-10T12:59:03.964Z,100545.37
2018-08-10T13:01:32.401Z,100538.61
2018-08-10T13:04:00.993Z,100541.90
2018-08-10T13:06:29.504Z,100544.78
2018-08-10T13:08:58.090Z,100537.83
2018-08-10T13:11:27.037Z,100550.24
2018-08-10T13:13:55.486Z,100548.75
2018-08-10T13:16:23.939Z,100551.83
2018-08-10T13:18:52.509Z,100562.41
2018-08-10T13:21:20.977Z,100556.31
2018-08-10T13:23:49.449Z,100551.14
2018-08-10T13:26:18.094Z,100556.16
2018-08-10T13:28:47.163Z,100537.79
2018-08-10T13:31:15.614Z,100551.38
2018-08-10T13:33:44.466Z,100558.16
2018-08-10T13:36:13.008Z,100559.98
2018-08-10T13:38:41.587Z,100559.94
2018-08-10T13:41:10.683Z,100558.19
2018-08-10T13:43:39.288Z,100566.72
2018-08-10T13:46:07.877Z,100582.09
2018-08-10T13:48:36.460Z,100572.92
2018-08-10T13:51:05.189Z,100581.98
2018-08-10T13:53:33.686Z,100605.30
2018-08-10T13:56:03.013Z,100593.77
2018-08-10T13:58:31.621Z,100608.09
2018-08-10T14:01:00.078Z,100597.01
2018-08-10T14:03:28.613Z,100605.19
2018-08-10T14:05:57.246Z,100611.17
2018-08-10T14:08:25.637Z,100610.74
2018-08-10T14:10:54.237Z,100619.85
2018-08-10T14:13:22.841Z,100619.73
2018-08-10T14:15:51.333Z,100620.56
2018-08-10T14:18:20.221Z,100623.22
2018-08-10T14:20:48.938Z,100643.84
2018-08-10T14:23:17.549Z,100642.48
2018-08-10T14:25:46.101Z,100642.17
2018-08-10T14:28:14.595Z,100655.45
2018-08-10T14:30:43.193Z,100663.80
2018-08-10T14:33:12.145Z,100658.26
2018-08-10T14:35:40.805Z,100655.86
2018-08-10T14:38:09.242Z,100673.08
2018-08-10T14:40:37.672Z,100656.83
2018-08-10T14:43:06.317Z,100662.70
2018-08-10T14:45:34.880Z,100662.97
2018-08-10T14:48:03.545Z,100661.32
2018-08-10T14:50:32.992Z,100669.98
2018-08-10T14:53:03.753Z,100663.16
2018-08-10T14:55:33.398Z,100634.99
2018-08-10T14:58:03.682Z,100663.58
2018-08-10T15:00:32.278Z,100662.79
2018-08-10T15:03:01.873Z,100664.44
2018-08-10T15:05:30.412Z,100656.41
2018-08-10T15:07:59.901Z,100660.80
2018-08-10T15:10:28.433Z,100673.46
2018-08-10T15:12:57.457Z,100654.27
2018-08-10T15:15:25.757Z,100669.69
2018-08-10T15:17:54.328Z,100650.83
2018-08-10T15:20:22.803Z,100655.67
2018-08-10T15:22:51.304Z,100655.75
2018-08-10T15:25:19.814Z,100661.20
2018-08-10T15:27:48.336Z,100664.49
2018-08-10T15:30:18.337Z,100679.28
2018-08-10T15:32:47.071Z,100661.13
2018-08-10T15:35:16.797Z,100667.17
2018-08-10T15:37:45.725Z,100672.30
2018-08-10T15:40:16.384Z,100678.09
2018-08-10T15:42:45.066Z,100679.05
2018-08-10T15:45:14.713Z,100683.16
2018-08-10T15:47:44.093Z,100687.25
2018-08-10T15:50:12.906Z,100690.50
2018-08-10T15:52:42.625Z,100684.63
2018-08-10T15:55:12.034Z,100685.84
2018-08-10T15:57:40.959Z,100686.06
2018-08-10T16:00:25.813Z,100706.86
2018-08-10T16:02:54.265Z,100685.80
2018-08-10T16:05:22.781Z,100697.95
2018-08-10T16:07:51.705Z,100689.00
2018-08-10T16:10:20.229Z,100697.63
2018-08-10T16:12:48.770Z,100692.16
2018-08-10T16:15:18.428Z,100708.34
2018-08-10T16:17:46.957Z,100673.67
2018-08-10T16:20:17.820Z,100735.20
2018-08-10T16:22:46.500Z,100707.11
2018-08-10T16:25:15.466Z,100727.56
2018-08-10T16:27:44.489Z,100716.28
2018-08-10T16:30:14.717Z,100720.61
2018-08-10T16:32:44.253Z,100719.32
2018-08-10T16:35:14.003Z,100729.19
2018-08-10T16:37:43.881Z,100741.77
2018-08-10T16:40:14.264Z,100730.06
2018-08-10T16:42:43.151Z,100728.41
2018-08-10T16:45:12.165Z,100733.98
2018-08-10T16:47:40.969Z,100757.63
2018-08-10T16:50:13.127Z,100750.94
2018-08-10T16:52:42.512Z,100749.70
2018-08-10T16:55:13.610Z,100750.22
2018-08-10T16:57:42.873Z,100742.55
2018-08-10T17:00:16.200Z,100757.00
2018-08-10T17:02:45.148Z,100763.56
2018-08-10T17:05:13.658Z,100757.38
2018-08-10T17:07:42.458Z,100777.36
2018-08-10T17:10:11.369Z,100786.91
2018-08-10T17:12:41.129Z,100778.58
2018-08-10T17:15:12.753Z,100776.02
2018-08-10T17:17:42.066Z,100774.72
2018-08-10T17:20:11.125Z,100782.55
2018-08-10T17:22:39.845Z,100775.16
2018-08-10T17:25:09.546Z,100784.09
2018-08-10T17:27:38.190Z,100795.38
2018-08-10T17:30:08.730Z,100790.47
2018-08-10T17:32:37.377Z,100790.33
2018-08-10T17:35:06.869Z,100796.78
2018-08-10T17:37:36.802Z,100796.03
2018-08-10T17:40:06.119Z,100792.69
2018-08-10T17:42:34.800Z,100804.28
2018-08-10T17:45:03.985Z,100810.60
2018-08-10T17:47:32.485Z,100817.55
2018-08-10T17:50:00.952Z,100821.31
2018-08-10T17:52:29.498Z,100824.85
2018-08-10T17:54:57.957Z,100841.34
2018-08-10T17:57:26.413Z,100842.17
2018-08-10T17:59:55.666Z,100827.72
2018-08-10T18:02:24.164Z,100792.06
2018-08-10T18:04:52.612Z,100856.80
2018-08-10T18:07:22.401Z,100843.56
2018-08-10T18:09:50.899Z,100842.89
2018-08-10T18:12:19.345Z,100857.24
2018-08-10T18:17:15.791Z,100854.18
2018-08-10T18:19:44.385Z,100875.75
2018-08-10T18:22:13.274Z,100880.76
2018-08-10T18:24:41.736Z,100880.91
2018-08-10T18:27:10.160Z,100889.86
2018-08-10T18:29:38.746Z,100904.21
2018-08-10T18:32:07.394Z,100900.75
2018-08-10T18:34:35.861Z,100904.92
2018-08-10T18:37:04.641Z,100901.91
2018-08-10T18:39:33.166Z,100909.17
2018-08-10T18:42:01.650Z,100916.38
2018-08-10T18:44:30.710Z,100925.37
2018-08-10T18:46:59.165Z,100937.48
2018-08-10T18:49:27.606Z,100934.91
2018-08-10T18:51:56.272Z,100934.53
2018-08-10T18:54:24.925Z,100939.08
2018-08-10T18:56:53.373Z,100944.97
2018-08-10T18:59:22.188Z,100945.53
2018-08-10T19:01:50.665Z,100942.51
2018-08-10T19:04:19.394Z,100945.23
2018-08-10T19:06:48.129Z,100953.33
2018-08-10T19:09:16.585Z,100946.30
2018-08-10T19:11:45.070Z,100959.20
2018-08-10T19:14:14.110Z,100970.84
2018-08-10T19:16:42.573Z,100976.23
2018-08-10T19:19:11.038Z,100785.41
2018-08-10T19:21:40.472Z,100978.13
2018-08-10T19:24:08.985Z,100993.30
2018-08-10T19:26:37.489Z,100998.23
2018-08-10T19:29:06.162Z,100992.89
2018-08-10T19:31:34.638Z,101009.81
2018-08-10T19:34:03.126Z,100998.83
2018-08-10T19:36:32.721Z,101000.68
2018-08-10T19:39:01.642Z,101023.37
2018-08-10T19:41:30.473Z,101022.55
2018-08-10T19:43:59.074Z,101023.02
2018-08-10T19:46:27.700Z,101029.70
2018-08-10T19:48:56.291Z,101029.73
2018-08-10T19:51:25.205Z,101034.66
2018-08-10T19:53:53.849Z,101038.25
2018-08-10T19:56:22.650Z,101043.61
2018-08-10T19:58:51.297Z,101048.98
2018-08-10T20:01:19.781Z,101050.78
2018-08-10T20:03:51.539Z,101052.16
2018-08-10T20:06:20.633Z,101057.08
2018-08-10T20:08:49.095Z,101058.00
2018-08-10T20:11:17.573Z,101056.73
2018-08-10T20:13:46.240Z,101059.84
2018-08-10T20:16:14.723Z,101084.73
2018-08-10T20:18:43.256Z,101065.70
2018-08-10T20:21:12.025Z,101084.34
2018-08-10T20:23:40.805Z,101073.72
2018-08-10T20:26:09.293Z,101078.20
2018-08-10T20:28:38.967Z,101086.62
2018-08-10T20:31:07.499Z,101085.77
2018-08-10T20:33:35.952Z,101103.55
2018-08-10T20:36:04.753Z,101096.03
2018-08-10T20:38:33.209Z,101098.70
2018-08-10T20:41:01.702Z,101103.16
2018-08-10T20:43:30.493Z,101108.52
2018-08-10T20:45:58.957Z,101095.20
2018-08-10T20:48:27.744Z,101100.54
2018-08-10T20:50:56.557Z,101106.32
2018-08-10T20:53:24.995Z,101097.03
2018-08-10T20:55:53.480Z,101122.31
2018-08-10T20:58:22.297Z,101110.80
2018-08-10T21:00:50.735Z,101125.44
2018-08-10T21:03:19.198Z,101125.89
2018-08-10T21:05:47.781Z,101115.70
2018-08-10T21:08:16.305Z,101121.48
2018-08-10T21:10:44.710Z,101124.15
2018-08-10T21:13:13.353Z,101135.67
2018-08-10T21:15:41.800Z,101128.59
2018-08-10T21:18:10.223Z,101136.13
2018-08-10T21:20:38.882Z,101133.92
2018-08-10T21:23:07.350Z,101100.73
2018-08-10T21:25:35.984Z,101135.25
2018-08-10T21:28:04.685Z,101144.56
2018-08-10T21:30:33.130Z,101129.06
2018-08-10T21:33:02.433Z,101145.00
2018-08-10T21:35:31.610Z,101150.31
2018-08-10T21:38:00.097Z,101154.75
2018-08-10T21:40:28.561Z,101156.07
2018-08-10T21:42:57.177Z,101146.30
2018-08-10T21:45:25.681Z,101167.98
2018-08-10T21:47:54.105Z,101147.62
2018-08-10T21:50:23.282Z,101155.59
2018-08-10T21:52:51.753Z,101148.95
2018-08-10T21:55:20.278Z,101162.23
2018-08-10T21:57:49.116Z,101155.14
2018-08-10T22:00:22.870Z,101148.95
2018-08-10T22:02:51.690Z,101148.94
2018-08-10T22:05:20.150Z,101142.30
2018-08-10T22:07:48.785Z,101135.22
2018-08-10T22:10:17.441Z,101145.40
2018-08-10T22:12:48.102Z,101141.86
2018-08-10T22:15:22.406Z,101141.85
2018-08-10T22:17:56.061Z,101136.54
2018-08-10T22:20:24.894Z,101142.73
2018-08-10T22:22:53.353Z,101139.63
2018-08-10T22:25:21.777Z,101140.08
2018-08-10T22:27:50.530Z,101148.03
2018-08-10T22:30:19.162Z,101145.83
2018-08-10T22:32:47.633Z,101144.52
2018-08-10T22:35:16.299Z,101146.73
2018-08-10T22:37:44.746Z,101156.46
2018-08-10T22:40:13.208Z,101143.62
2018-08-10T22:42:41.694Z,101143.17
2018-08-10T22:45:10.183Z,101149.80
2018-08-10T22:47:38.663Z,101146.27
2018-08-10T22:50:08.094Z,101152.45
2018-08-10T22:52:37.308Z,101153.31
2018-08-10T22:55:05.992Z,101151.55
2018-08-10T22:57:34.844Z,101169.66
2018-08-10T23:00:04.183Z,101155.50
2018-08-10T23:02:32.653Z,101149.75
2018-08-10T23:05:01.556Z,101150.19
2018-08-10T23:07:30.093Z,101143.55
2018-08-10T23:09:58.537Z,101155.94
2018-08-10T23:12:27.269Z,101172.28
2018-08-10T23:14:55.742Z,101139.11
2018-08-10T23:17:24.234Z,101161.64
2018-08-10T23:19:52.803Z,101149.27
2018-08-10T23:22:21.261Z,101157.20
2018-08-10T23:24:49.861Z,101154.09
2018-08-10T23:27:18.357Z,101143.45
2018-08-10T23:29:46.957Z,101154.05
2018-08-10T23:32:15.463Z,101148.73
2018-08-10T23:34:44.082Z,101151.37
2018-08-10T23:37:12.690Z,101146.05
2018-08-10T23:39:41.192Z,101156.20
2018-08-10T23:42:09.865Z,101149.55
2018-08-10T23:44:38.313Z,101158.83
2018-08-10T23:47:06.837Z,101171.63
2018-08-10T23:49:35.720Z,101152.16
2018-08-10T23:52:04.235Z,101176.88
2018-08-10T23:54:32.837Z,101151.67
2018-08-10T23:57:02.272Z,101163.59
2018-08-10T23:59:30.957Z,101152.09
